Time;durP1;ratioP1;P1;durP2;ratioP2;P2;SDS_P1;SDS_P2;PMS_P1;PMS_P2;Temp;Humidity;BMP_temperature;BMP_pressure;BME280_temperature;BME280_humidity;BME280_pressure;Samples;Min_cycle;Max_cycle;Signal;HPM_P1;HPM_P2
2021/11/07 00:01:57;;;;;;;11.95;7.00;;;;;;;22.82;18.19;98868.63;5070268;28;20048;-82
2021/11/07 00:04:45;;;;;;;15.95;7.35;;;;;;;22.23;18.36;98865.56;5067262;28;20033;-80
2021/11/07 00:12:21;;;;;;;14.70;6.93;;;;;;;22.51;18.44;98875.88;5066847;28;20502;-80
2021/11/07 00:14:51;;;;;;;15.80;7.00;;;;;;;22.43;18.43;98874.31;5069176;28;20052;-80
2021/11/07 00:17:20;;;;;;;17.20;8.95;;;;;;;22.03;19.38;98856.81;5055934;28;20090;-83
2021/11/07 00:20:01;;;;;;;18.67;8.93;;;;;;;21.94;19.41;98836.84;5074101;28;20037;-80
2021/11/07 00:28:05;;;;;;;18.38;8.00;;;;;;;22.25;19.05;98834.38;5059029;28;20047;-80
2021/11/07 00:30:39;;;;;;;13.90;7.07;;;;;;;22.19;18.72;98814.44;5068801;28;20048;-80
2021/11/07 00:36:17;;;;;;;16.98;6.72;;;;;;;22.63;18.87;98816.69;5021005;28;20081;-80
2021/11/07 00:49:00;;;;;;;19.88;8.07;;;;;;;22.64;18.29;98819.09;5073946;28;20120;-81
2021/11/07 00:51:32;;;;;;;14.68;6.75;;;;;;;22.81;17.92;98808.22;5057610;28;20036;-81
2021/11/07 00:54:15;;;;;;;17.13;7.00;;;;;;;22.85;18.09;98809.00;5064241;28;20116;-81
2021/11/07 00:56:57;;;;;;;12.73;7.15;;;;;;;22.78;18.29;98801.41;5066317;28;20029;-81
2021/11/07 01:02:31;;;;;;;15.27;6.70;;;;;;;22.36;18.55;98790.38;5076923;28;20044;-81
2021/11/07 01:05:04;;;;;;;13.52;7.80;;;;;;;21.81;19.52;98785.31;5036599;28;20036;-81
2021/11/07 01:07:30;;;;;;;14.25;7.47;;;;;;;21.14;20.41;98792.91;5062236;28;20044;-81
2021/11/07 01:09:57;;;;;;;13.70;7.07;;;;;;;21.39;19.98;98790.94;5064204;28;20033;-81
2021/11/07 01:12:24;;;;;;;18.70;7.45;;;;;;;21.59;19.83;98780.13;5062585;28;20047;-81
2021/11/07 01:14:53;;;;;;;17.70;7.53;;;;;;;21.53;19.96;98767.78;5070232;28;20122;-81
2021/11/07 01:17:19;;;;;;;18.17;6.65;;;;;;;21.54;20.09;98764.56;5052961;28;20049;-81
2021/11/07 01:19:47;;;;;;;19.92;8.90;;;;;;;21.37;20.14;98759.00;5081521;28;20389;-81
2021/11/07 01:22:18;;;;;;;16.27;7.10;;;;;;;21.98;19.82;98759.34;5066002;28;20044;-80
2021/11/07 01:24:58;;;;;;;16.90;7.25;;;;;;;22.34;19.01;98743.22;5068949;28;20074;-81
2021/11/07 01:27:33;;;;;;;14.95;6.53;;;;;;;22.69;18.38;98751.47;5068659;28;20574;-80
2021/11/07 01:30:02;;;;;;;16.00;8.57;;;;;;;21.12;20.00;98745.06;5060540;28;20367;-80
2021/11/07 01:32:34;;;;;;;19.55;7.43;;;;;;;20.83;20.67;98744.19;5077180;28;20028;-81
2021/11/07 01:35:11;;;;;;;15.93;7.38;;;;;;;20.62;21.06;98736.56;5080709;28;20024;-81
2021/11/07 01:37:47;;;;;;;15.73;8.30;;;;;;;20.98;20.81;98729.03;5066662;28;20029;-81
2021/11/07 01:40:17;;;;;;;19.50;8.27;;;;;;;21.43;20.46;98733.06;5068930;28;20032;-81
2021/11/07 01:42:53;;;;;;;14.18;7.40;;;;;;;21.80;19.53;98746.56;5066974;28;20451;-81
2021/11/07 01:45:26;;;;;;;13.27;6.55;;;;;;;22.11;19.25;98737.34;5068097;28;20033;-81
2021/11/07 01:48:01;;;;;;;12.55;6.05;;;;;;;22.25;19.11;98728.09;5067223;28;20051;-81
2021/11/07 01:50:27;;;;;;;14.10;5.97;;;;;;;22.44;18.90;98727.59;5067630;28;20086;-81
2021/11/07 01:53:03;;;;;;;15.95;6.53;;;;;;;22.58;18.55;98725.53;5062532;28;20406;-81
2021/11/07 01:55:30;;;;;;;14.07;6.15;;;;;;;22.81;18.32;98725.03;5066894;28;20461;-81
2021/11/07 01:57:56;;;;;;;12.73;5.80;;;;;;;22.87;17.45;98725.41;5068076;28;20090;-80
2021/11/07 02:00:28;;;;;;;12.95;5.90;;;;;;;23.10;17.12;98717.22;5063958;28;20536;-80
2021/11/07 02:02:55;;;;;;;13.80;6.90;;;;;;;22.71;17.26;98705.50;5072751;28;20073;-80
2021/11/07 02:05:21;;;;;;;14.85;6.68;;;;;;;22.46;17.46;98708.41;5072097;28;20031;-80
2021/11/07 02:07:48;;;;;;;15.10;6.88;;;;;;;21.86;17.91;98695.50;5064033;28;20403;-80
2021/11/07 02:10:18;;;;;;;14.80;6.82;;;;;;;21.09;18.57;98693.59;5065246;28;20040;-80
2021/11/07 02:12:44;;;;;;;19.67;9.40;;;;;;;20.86;19.72;98692.34;5066648;28;20028;-81
2021/11/07 02:15:16;;;;;;;13.38;7.05;;;;;;;21.17;19.32;98675.63;5064946;28;20059;-80
2021/11/07 02:17:43;;;;;;;15.05;6.57;;;;;;;21.76;18.94;98673.91;5057771;28;20047;-80
2021/11/07 02:20:15;;;;;;;15.90;7.15;;;;;;;22.20;17.97;98676.16;5063970;28;20118;-80
2021/11/07 02:22:43;;;;;;;16.63;9.68;;;;;;;22.41;17.91;98678.84;5067815;28;20032;-80
2021/11/07 02:25:09;;;;;;;16.95;8.18;;;;;;;22.16;18.02;98680.97;5065212;28;20029;-81
2021/11/07 02:27:36;;;;;;;18.15;9.50;;;;;;;21.79;17.95;98684.31;5064748;28;20044;-81
2021/11/07 02:30:03;;;;;;;15.93;7.18;;;;;;;21.75;18.43;98693.91;5067365;28;20035;-80
2021/11/07 02:32:29;;;;;;;14.73;7.03;;;;;;;22.02;17.78;98684.66;5059388;28;20863;-81
2021/11/07 02:34:56;;;;;;;14.25;6.32;;;;;;;22.23;17.74;98691.34;5067823;28;20064;-81
2021/11/07 02:37:22;;;;;;;16.88;7.03;;;;;;;22.27;17.60;98683.72;5051969;28;20071;-81
2021/11/07 02:39:48;;;;;;;12.93;6.65;;;;;;;22.33;17.48;98680.09;5067843;28;20066;-81
2021/11/07 02:42:15;;;;;;;11.02;5.88;;;;;;;22.20;17.57;98673.38;5063916;28;20037;-81
2021/11/07 02:44:47;;;;;;;13.23;5.30;;;;;;;22.41;17.99;98667.66;5061663;28;20037;-81
2021/11/07 02:47:16;;;;;;;13.45;5.88;;;;;;;22.69;17.24;98673.09;5065507;28;20048;-80
2021/11/07 02:49:43;;;;;;;12.90;5.72;;;;;;;22.92;16.92;98669.72;5074575;28;20028;-80
2021/11/07 02:52:13;;;;;;;15.63;6.25;;;;;;;23.01;16.50;98667.25;5089383;28;20044;-80
2021/11/07 02:54:41;;;;;;;14.75;7.50;;;;;;;22.98;16.81;98659.69;5064598;28;20024;-80
2021/11/07 02:57:11;;;;;;;13.80;6.50;;;;;;;22.94;16.92;98647.69;5073337;28;20062;-80
2021/11/07 02:59:40;;;;;;;15.70;7.20;;;;;;;23.00;16.81;98648.06;5053299;28;20033;-80
2021/11/07 03:02:08;;;;;;;13.40;6.00;;;;;;;22.71;16.65;98653.09;5066668;28;20035;-80
2021/11/07 03:04:34;;;;;;;12.75;6.20;;;;;;;22.72;16.57;98642.69;5070542;28;20025;-80
2021/11/07 03:07:03;;;;;;;14.77;7.50;;;;;;;22.51;16.81;98632.41;5064375;28;20063;-80
2021/11/07 03:09:33;;;;;;;15.13;7.05;;;;;;;21.97;17.27;98643.13;5070525;28;20044;-80
2021/11/07 03:12:01;;;;;;;15.30;6.75;;;;;;;22.13;17.17;98641.84;5065034;28;20396;-81
2021/11/07 03:14:33;;;;;;;15.07;6.55;;;;;;;22.13;17.31;98627.84;5070199;28;20024;-80
2021/11/07 03:17:02;;;;;;;15.50;6.22;;;;;;;22.30;16.73;98626.97;5063670;28;20402;-80
2021/11/07 03:19:29;;;;;;;14.07;6.38;;;;;;;21.85;17.08;98637.16;5067870;28;20390;-80
2021/11/07 03:22:00;;;;;;;15.55;7.47;;;;;;;21.80;17.54;98640.34;5070000;28;20045;-80
2021/11/07 03:24:27;;;;;;;14.40;5.95;;;;;;;21.50;17.96;98640.03;5071114;28;20039;-80
2021/11/07 03:26:54;;;;;;;13.32;6.45;;;;;;;21.53;17.50;98637.25;5072093;28;20040;-80
2021/11/07 03:29:22;;;;;;;14.27;6.75;;;;;;;21.35;18.34;98628.91;5066028;28;20029;-80
2021/11/07 03:31:53;;;;;;;14.30;6.88;;;;;;;21.19;18.46;98625.75;5069007;28;20041;-80
2021/11/07 03:34:33;;;;;;;14.20;7.17;;;;;;;21.19;18.59;98624.97;5070049;28;20116;-80
2021/11/07 03:37:03;;;;;;;14.63;7.20;;;;;;;21.15;18.80;98611.00;5070662;28;20301;-80
2021/11/07 03:39:31;;;;;;;10.55;5.55;;;;;;;21.08;18.70;98605.44;5068912;28;20039;-80
2021/11/07 03:41:58;;;;;;;12.75;6.68;;;;;;;21.04;18.75;98603.81;5066594;28;20029;-80
2021/11/07 03:44:24;;;;;;;15.10;6.85;;;;;;;21.20;19.34;98585.47;5070173;28;20039;-82
2021/11/07 03:46:53;;;;;;;11.93;6.47;;;;;;;21.22;18.91;98591.44;5069028;28;20033;-80
2021/11/07 03:49:19;;;;;;;9.73;5.00;;;;;;;21.67;18.48;98591.69;5064616;28;20029;-80
2021/11/07 03:51:46;;;;;;;11.05;5.38;;;;;;;22.10;18.21;98583.94;5071700;28;20078;-80
2021/11/07 03:54:13;;;;;;;13.90;6.13;;;;;;;21.83;18.14;98578.06;5072629;28;20056;-80
2021/11/07 03:56:40;;;;;;;12.50;5.70;;;;;;;22.16;17.93;98562.72;5074448;28;20025;-80
2021/11/07 03:59:06;;;;;;;15.23;6.65;;;;;;;22.21;17.91;98567.88;5071559;28;20033;-82
2021/11/07 04:01:35;;;;;;;15.05;6.18;;;;;;;22.57;17.72;98570.00;5069048;28;20126;-80
2021/11/07 04:04:03;;;;;;;13.80;5.65;;;;;;;22.64;17.61;98577.56;5071694;28;20024;-80
2021/11/07 04:06:29;;;;;;;10.90;5.53;;;;;;;22.60;17.98;98587.97;5071301;28;20469;-82
2021/11/07 04:08:56;;;;;;;11.27;5.63;;;;;;;22.58;18.21;98596.78;5070866;28;20113;-82
2021/11/07 04:11:22;;;;;;;14.70;5.55;;;;;;;22.54;18.37;98586.84;5068499;28;20025;-83
2021/11/07 04:13:49;;;;;;;11.77;6.07;;;;;;;22.30;18.96;98591.41;5053545;28;20031;-82
2021/11/07 04:16:16;;;;;;;9.68;4.82;;;;;;;22.30;19.02;98587.78;5069836;28;20047;-82
2021/11/07 04:18:44;;;;;;;11.60;4.80;;;;;;;22.39;19.24;98582.53;5064172;28;20041;-81
2021/11/07 04:21:11;;;;;;;8.48;4.60;;;;;;;22.67;18.90;98576.75;5072143;28;20040;-81
2021/11/07 04:23:37;;;;;;;8.20;4.68;;;;;;;23.26;18.23;98572.59;5076973;28;20032;-80
2021/11/07 04:26:05;;;;;;;11.40;5.20;;;;;;;23.26;18.26;98577.41;5072925;28;20570;-80
2021/11/07 04:28:31;;;;;;;10.65;5.13;;;;;;;23.08;18.68;98568.38;5076276;28;20525;-80
2021/11/07 04:30:58;;;;;;;15.75;6.70;;;;;;;23.08;18.22;98566.34;5075047;28;20024;-80
2021/11/07 04:33:25;;;;;;;11.25;5.75;;;;;;;23.16;18.45;98550.28;5083048;28;20033;-82
2021/11/07 04:35:51;;;;;;;10.07;5.13;;;;;;;22.93;18.70;98552.91;5069453;28;20039;-82
2021/11/07 04:38:18;;;;;;;11.93;4.47;;;;;;;23.41;18.41;98553.63;5071113;28;20028;-80
2021/11/07 04:40:45;;;;;;;7.95;4.68;;;;;;;23.79;17.93;98555.16;5068665;28;20028;-82
2021/11/07 04:43:11;;;;;;;8.25;4.20;;;;;;;24.17;17.60;98555.06;5070956;28;20079;-81
2021/11/07 04:45:38;;;;;;;10.98;5.30;;;;;;;24.11;17.56;98553.97;5069930;28;20060;-80
2021/11/07 04:48:05;;;;;;;11.77;5.32;;;;;;;23.84;17.97;98546.28;5065224;28;20046;-80
2021/11/07 04:50:36;;;;;;;11.20;5.55;;;;;;;23.63;18.22;98543.75;5070829;28;20033;-80
2021/11/07 04:53:10;;;;;;;10.48;4.15;;;;;;;23.78;17.95;98536.72;5049338;28;20037;-82
2021/11/07 04:55:41;;;;;;;10.85;5.82;;;;;;;23.72;17.94;98535.63;5068214;28;20024;-82
2021/11/07 04:58:07;;;;;;;10.23;5.45;;;;;;;23.55;18.40;98531.03;5071067;28;20069;-80
2021/11/07 05:00:34;;;;;;;10.40;4.85;;;;;;;23.63;18.21;98521.31;5072544;28;20021;-80
2021/11/07 05:03:02;;;;;;;10.90;5.00;;;;;;;23.68;18.27;98515.25;5074609;28;20056;-80
2021/11/07 05:05:30;;;;;;;8.45;4.78;;;;;;;23.49;18.47;98501.88;5062133;28;20029;-82
2021/11/07 05:07:56;;;;;;;10.93;5.55;;;;;;;23.46;18.67;98491.50;5069939;28;20103;-80
2021/11/07 05:10:23;;;;;;;8.10;4.68;;;;;;;23.04;19.16;98487.19;5065223;28;20454;-80
2021/11/07 05:12:50;;;;;;;9.05;4.78;;;;;;;22.38;19.89;98474.66;5060155;28;20552;-80
2021/11/07 05:15:16;;;;;;;9.35;4.40;;;;;;;22.44;19.80;98473.78;5070190;28;20147;-80
2021/11/07 05:17:42;;;;;;;9.20;5.78;;;;;;;22.47;19.66;98472.97;5068216;28;20047;-82
2021/11/07 05:20:10;;;;;;;8.55;4.75;;;;;;;22.08;20.23;98466.88;5070056;28;20112;-81
2021/11/07 05:22:36;;;;;;;10.43;5.50;;;;;;;22.30;20.03;98459.91;5056328;28;20490;-81
2021/11/07 05:25:04;;;;;;;11.02;4.97;;;;;;;22.64;19.56;98466.41;5070030;28;20071;-80
2021/11/07 05:27:30;;;;;;;9.43;4.88;;;;;;;23.07;19.28;98457.56;5065037;28;20036;-82
2021/11/07 05:29:56;;;;;;;11.60;5.30;;;;;;;23.25;19.06;98455.31;5070393;28;20130;-80
2021/11/07 05:32:22;;;;;;;13.30;5.50;;;;;;;23.26;19.22;98451.31;5068647;28;20064;-81
2021/11/07 05:34:48;;;;;;;8.57;5.30;;;;;;;23.27;19.11;98452.88;5069225;28;20037;-80
2021/11/07 05:37:14;;;;;;;7.93;4.63;;;;;;;23.15;19.09;98453.47;5067163;28;20062;-82
2021/11/07 05:39:41;;;;;;;9.43;4.82;;;;;;;22.49;19.93;98448.16;5065584;28;20041;-81
2021/11/07 05:42:07;;;;;;;9.95;4.65;;;;;;;22.54;19.86;98444.88;5069267;28;20116;-82
2021/11/07 05:44:33;;;;;;;9.82;5.53;;;;;;;22.15;19.90;98443.69;5069772;28;20082;-81
2021/11/07 05:46:59;;;;;;;9.27;4.60;;;;;;;22.47;20.02;98446.97;5070736;28;20040;-83
2021/11/07 05:49:25;;;;;;;8.15;4.55;;;;;;;22.85;19.40;98440.19;5067568;28;20111;-80
2021/11/07 05:51:52;;;;;;;10.75;4.72;;;;;;;23.35;18.83;98438.41;5068792;28;20032;-81
2021/11/07 05:54:18;;;;;;;6.95;3.63;;;;;;;23.84;18.27;98431.31;5063787;28;20413;-81
2021/11/07 05:56:44;;;;;;;9.45;4.50;;;;;;;24.14;18.16;98422.03;5056341;28;20044;-83
2021/11/07 05:59:10;;;;;;;7.50;4.18;;;;;;;24.02;18.17;98422.59;5053253;28;20037;-81
2021/11/07 06:01:36;;;;;;;6.70;3.70;;;;;;;23.69;18.63;98410.28;5058301;28;20033;-81
2021/11/07 06:04:04;;;;;;;7.45;4.00;;;;;;;23.72;18.42;98405.84;5053824;28;20047;-81
2021/11/07 06:06:30;;;;;;;8.63;4.32;;;;;;;23.79;18.17;98400.13;5054389;28;20127;-81
2021/11/07 06:08:56;;;;;;;5.90;3.45;;;;;;;24.08;18.08;98404.09;5052849;28;20040;-81
2021/11/07 06:11:22;;;;;;;9.30;3.75;;;;;;;24.41;17.77;98407.94;5038173;28;20071;-81
2021/11/07 06:13:49;;;;;;;8.82;3.95;;;;;;;24.46;17.70;98394.19;5052470;28;20070;-81
2021/11/07 06:16:15;;;;;;;7.00;3.78;;;;;;;24.25;17.87;98391.78;5051836;28;21764;-81
2021/11/07 06:18:41;;;;;;;10.15;5.13;;;;;;;23.97;18.40;98390.22;5055595;28;20040;-83
2021/11/07 06:21:09;;;;;;;6.88;4.20;;;;;;;23.60;18.90;98392.41;5053557;28;20064;-82
2021/11/07 06:23:36;;;;;;;8.38;4.13;;;;;;;23.31;19.35;98415.22;5062453;28;20032;-84
2021/11/07 06:26:02;;;;;;;6.85;3.88;;;;;;;22.99;19.56;98426.03;5084641;28;20047;-84
2021/11/07 06:28:29;;;;;;;8.50;4.32;;;;;;;22.89;19.64;98438.16;5067722;28;20043;-83
2021/11/07 06:30:55;;;;;;;6.78;3.53;;;;;;;23.53;19.21;98420.53;5069460;28;20028;-85
2021/11/07 06:33:21;;;;;;;6.22;3.65;;;;;;;24.22;18.72;98414.28;5072981;28;20032;-83
2021/11/07 06:35:47;;;;;;;9.68;5.80;;;;;;;24.71;17.98;98416.19;5063345;28;20036;-84
2021/11/07 06:38:13;;;;;;;11.40;6.72;;;;;;;23.93;18.48;98406.31;5059976;28;20509;-85
2021/11/07 06:40:40;;;;;;;6.85;4.70;;;;;;;23.44;18.90;98404.25;5067122;28;20029;-84
2021/11/07 06:43:07;;;;;;;11.55;6.30;;;;;;;22.58;19.91;98400.88;5061397;28;20032;-84
2021/11/07 06:45:34;;;;;;;8.65;4.78;;;;;;;23.50;19.63;98379.38;5065486;28;20024;-84
2021/11/07 06:48:01;;;;;;;8.18;4.55;;;;;;;24.03;19.76;98396.16;5070964;28;20443;-84
2021/11/07 06:50:27;;;;;;;6.68;3.75;;;;;;;24.63;19.14;98393.06;5073001;28;20063;-84
2021/11/07 06:52:54;;;;;;;7.50;4.22;;;;;;;24.92;18.62;98386.94;5070621;28;20036;-84
2021/11/07 06:55:20;;;;;;;9.32;4.35;;;;;;;24.90;19.05;98384.53;5084760;28;20049;-84
2021/11/07 06:57:47;;;;;;;7.15;4.78;;;;;;;24.95;18.77;98381.22;5066388;28;20115;-84
2021/11/07 07:00:17;;;;;;;5.75;3.15;;;;;;;25.09;18.32;98371.69;5075695;28;20082;-84
2021/11/07 07:02:44;;;;;;;7.38;4.15;;;;;;;24.62;18.92;98374.63;5072342;28;20054;-84
2021/11/07 07:05:11;;;;;;;7.13;4.20;;;;;;;24.54;19.74;98376.00;5077076;28;20032;-84
2021/11/07 07:07:42;;;;;;;5.88;3.75;;;;;;;24.90;19.06;98372.53;5062686;28;20037;-84
2021/11/07 07:10:12;;;;;;;6.78;4.32;;;;;;;25.24;18.86;98379.41;5072757;28;20111;-84
2021/11/07 07:12:47;;;;;;;7.53;4.57;;;;;;;25.42;18.55;98373.38;5071421;28;20035;-84
2021/11/07 07:15:19;;;;;;;7.10;3.92;;;;;;;25.70;18.71;98372.75;5072856;28;20025;-84
2021/11/07 07:25:51;;;;;;;7.45;3.67;;;;;;;25.53;19.16;98378.81;5066455;28;20120;-86
2021/11/07 07:28:27;;;;;;;5.07;3.05;;;;;;;25.60;19.22;98378.63;5070684;28;20458;-86
2021/11/07 07:31:21;;;;;;;3.38;2.42;;;;;;;26.26;18.28;98373.38;5057146;28;20408;-85
2021/11/07 07:33:46;;;;;;;3.80;2.60;;;;;;;26.88;18.11;98376.97;5071898;28;20060;-85
2021/11/07 07:36:13;;;;;;;6.50;3.40;;;;;;;27.25;18.59;98371.41;5063712;28;20403;-86
2021/11/07 07:38:39;;;;;;;5.60;3.47;;;;;;;27.51;17.78;98366.63;5076207;28;20029;-85
2021/11/07 07:41:05;;;;;;;6.90;4.40;;;;;;;27.08;18.08;98371.94;5077763;28;20103;-86
2021/11/07 07:43:32;;;;;;;6.65;4.15;;;;;;;26.82;19.25;98370.28;5075749;28;20054;-85
2021/11/07 07:46:03;;;;;;;5.55;3.92;;;;;;;26.32;18.66;98359.56;5085320;28;20107;-83
2021/11/07 07:48:30;;;;;;;6.45;3.70;;;;;;;26.10;19.02;98331.19;5096355;28;20141;-84
2021/11/07 07:50:56;;;;;;;4.80;3.30;;;;;;;26.29;18.80;98335.13;5082542;28;20060;-83
2021/11/07 07:53:24;;;;;;;5.00;3.28;;;;;;;26.91;19.38;98337.38;5056279;28;20036;-86
2021/11/07 07:55:50;;;;;;;4.80;2.92;;;;;;;27.42;18.49;98332.66;5056322;28;20505;-86
2021/11/07 07:58:17;;;;;;;9.45;4.78;;;;;;;27.29;18.54;98314.91;5092594;28;20032;-85
2021/11/07 08:00:43;;;;;;;7.78;3.92;;;;;;;27.68;19.13;98306.00;5075929;28;20040;-85
2021/11/07 08:03:09;;;;;;;6.55;3.38;;;;;;;27.77;19.04;98310.97;5072135;28;20115;-85
2021/11/07 08:05:35;;;;;;;5.80;3.58;;;;;;;27.70;18.30;98295.06;5068514;28;20075;-84
2021/11/07 08:08:01;;;;;;;6.25;3.55;;;;;;;27.76;18.60;98301.72;5070725;28;20043;-86
2021/11/07 08:10:27;;;;;;;6.40;3.33;;;;;;;27.51;18.79;98295.31;5067693;28;20490;-86
2021/11/07 08:12:53;;;;;;;8.32;3.58;;;;;;;28.13;18.13;98285.97;5071730;28;20154;-85
2021/11/07 08:15:20;;;;;;;4.30;2.67;;;;;;;28.70;17.96;98291.16;5066729;28;20029;-85
2021/11/07 08:17:46;;;;;;;3.70;2.28;;;;;;;29.14;16.97;98293.94;5074180;28;20029;-87
2021/11/07 08:20:13;;;;;;;4.40;2.80;;;;;;;29.24;17.17;98289.94;5076854;28;20025;-86
2021/11/07 08:22:41;;;;;;;5.47;2.88;;;;;;;29.32;16.17;98285.56;5074668;28;20033;-87
2021/11/07 08:25:11;;;;;;;4.18;2.50;;;;;;;29.16;16.62;98286.56;5074953;28;20028;-85
2021/11/07 08:27:40;;;;;;;6.00;2.90;;;;;;;28.48;16.72;98281.06;5085843;28;20123;-85
2021/11/07 08:30:08;;;;;;;2.72;1.80;;;;;;;28.62;16.94;98272.09;5062840;28;20394;-86
2021/11/07 08:32:34;;;;;;;5.82;2.80;;;;;;;28.69;16.83;98272.63;5060501;28;22022;-86
2021/11/07 08:35:00;;;;;;;4.05;2.55;;;;;;;28.37;16.47;98275.03;5064328;28;20035;-86
2021/11/07 08:37:34;;;;;;;3.65;2.17;;;;;;;28.35;17.08;98271.88;5067470;28;20039;-85
2021/11/07 08:40:05;;;;;;;3.10;2.05;;;;;;;28.26;16.47;98275.41;5070739;28;20028;-89
2021/11/07 08:42:35;;;;;;;4.15;2.17;;;;;;;28.51;17.38;98260.38;5063108;28;20878;-88
2021/11/07 09:09:33;;;;;;;1.60;1.30;;;;;;;29.78;15.64;98221.44;5058798;28;20444;-87
2021/11/07 09:12:00;;;;;;;2.08;1.35;;;;;;;29.46;15.67;98214.25;5036389;28;20044;-86
2021/11/07 09:14:34;;;;;;;3.80;1.85;;;;;;;29.30;15.75;98211.69;5057996;28;20280;-87
2021/11/07 09:17:02;;;;;;;2.00;1.55;;;;;;;29.45;15.44;98209.06;5051449;28;20033;-86
2021/11/07 09:19:30;;;;;;;1.95;1.45;;;;;;;29.53;16.31;98201.84;5059805;28;20055;-86
2021/11/07 09:22:02;;;;;;;2.72;1.60;;;;;;;29.34;15.39;98187.66;5054080;28;20044;-86
2021/11/07 09:24:35;;;;;;;1.70;1.30;;;;;;;29.38;16.45;98193.19;5057737;28;20137;-86
2021/11/07 09:27:08;;;;;;;2.92;1.75;;;;;;;29.02;15.19;98193.03;5051496;28;20467;-86
2021/11/07 09:34:51;;;;;;;3.03;1.67;;;;;;;29.19;16.38;98183.88;5051097;28;20068;-85
2021/11/07 09:40:11;;;;;;;4.93;2.17;;;;;;;28.53;16.20;98178.78;5033447;28;20040;-89
2021/11/07 09:48:10;;;;;;;1.88;1.15;;;;;;;29.18;16.15;98148.34;5069236;28;20516;-90
2021/11/07 09:50:37;;;;;;;2.05;1.30;;;;;;;29.53;15.88;98143.22;5065278;28;20144;-90
2021/11/07 09:53:04;;;;;;;2.75;0.90;;;;;;;29.87;15.16;98136.50;5077858;28;20112;-90
2021/11/07 09:55:32;;;;;;;1.25;0.90;;;;;;;29.86;15.30;98141.38;5052338;28;20028;-90
2021/11/07 09:57:59;;;;;;;1.00;0.70;;;;;;;30.08;15.19;98138.38;5066809;28;20063;-91
2021/11/07 10:00:34;;;;;;;1.20;1.10;;;;;;;30.39;14.71;98133.31;5069853;28;20028;-90
2021/11/07 10:03:00;;;;;;;1.15;0.70;;;;;;;30.62;15.13;98137.50;5048288;28;20032;-91
2021/11/07 10:05:27;;;;;;;1.55;1.05;;;;;;;29.80;15.76;98122.69;5066991;28;20032;-90
2021/11/07 10:08:00;;;;;;;1.88;0.85;;;;;;;29.78;15.42;98113.88;5048042;28;20052;-90
2021/11/07 10:10:33;;;;;;;0.63;0.50;;;;;;;30.07;15.15;98119.81;5062506;28;20621;-92
2021/11/07 10:13:07;;;;;;;1.73;0.60;;;;;;;30.33;15.01;98115.38;5065329;28;20064;-93
2021/11/07 10:15:52;;;;;;;0.85;0.60;;;;;;;30.25;14.92;98116.16;5067096;28;20529;-92
2021/11/07 10:18:30;;;;;;;0.77;0.50;;;;;;;30.32;15.06;98110.16;5067472;28;20051;-93
2021/11/07 10:21:03;;;;;;;0.68;0.52;;;;;;;30.02;15.41;98109.91;5062527;28;20067;-90
2021/11/07 10:23:35;;;;;;;0.60;0.50;;;;;;;30.34;15.27;98110.50;5062704;28;20032;-92
2021/11/07 10:26:25;;;;;;;2.38;0.55;;;;;;;29.93;15.09;98107.09;5059686;28;20032;-90
2021/11/07 10:29:00;;;;;;;0.70;0.70;;;;;;;29.30;15.58;98098.56;5066533;28;20032;-89
2021/11/07 10:31:39;;;;;;;1.50;0.57;;;;;;;28.73;16.54;98092.41;5067866;28;20033;-91
2021/11/07 10:46:11;;;;;;;1.48;0.77;;;;;;;27.96;17.84;98072.81;5058985;28;20048;-89
2021/11/07 10:53:56;;;;;;;0.88;0.60;;;;;;;27.73;17.24;98074.06;5064103;28;20048;-89
2021/11/07 10:56:22;;;;;;;2.50;0.60;;;;;;;27.53;18.00;98058.72;5064344;28;20401;-91
2021/11/07 10:58:49;;;;;;;2.78;0.60;;;;;;;27.72;17.34;98057.63;5064469;28;20101;-90
2021/11/07 11:01:24;;;;;;;1.58;0.63;;;;;;;28.53;17.06;98046.00;5066685;28;20444;-90
2021/11/07 11:03:54;;;;;;;1.20;0.65;;;;;;;28.48;16.42;98046.59;5050565;28;20039;-90
2021/11/07 11:06:21;;;;;;;0.63;0.50;;;;;;;28.75;16.57;98041.88;5066617;28;20398;-91
2021/11/07 11:08:55;;;;;;;0.40;0.40;;;;;;;29.09;16.28;98043.66;5062939;28;20370;-90
2021/11/07 11:24:49;;;;;;;0.93;0.55;;;;;;;26.75;18.70;98016.31;5066039;28;20089;-91
2021/11/07 11:32:33;;;;;;;0.50;0.40;;;;;;;28.07;17.76;97991.38;5070047;28;20040;-90
2021/11/07 11:40:21;;;;;;;1.38;0.93;;;;;;;27.08;18.41;97974.53;5071348;28;20048;-90
2021/11/07 11:45:35;;;;;;;0.88;0.50;;;;;;;26.47;18.73;97958.09;5069391;28;20144;-90
2021/11/07 11:48:32;;;;;;;0.80;0.50;;;;;;;27.61;18.22;97962.09;5049164;28;20033;-91
2021/11/07 12:08:18;;;;;;;1.27;0.73;;;;;;;25.15;19.83;97942.88;5053692;28;20047;-87
2021/11/07 12:11:00;;;;;;;1.67;0.63;;;;;;;25.90;19.19;97934.63;5056403;28;20043;-87
2021/11/07 12:13:50;;;;;;;1.00;0.80;;;;;;;26.17;19.15;97925.72;5052736;28;20103;-85
2021/11/07 12:16:37;;;;;;;1.17;0.65;;;;;;;26.52;18.41;97924.53;5051319;28;20115;-85
2021/11/07 12:19:09;;;;;;;0.85;0.70;;;;;;;26.60;18.41;97908.97;5053637;28;20040;-86
2021/11/07 12:21:55;;;;;;;0.73;0.60;;;;;;;27.55;17.68;97910.34;5050740;28;20098;-86
2021/11/07 12:24:25;;;;;;;1.30;0.50;;;;;;;27.97;17.44;97916.34;5054820;28;20055;-86
2021/11/07 12:26:52;;;;;;;0.55;0.55;;;;;;;27.28;17.59;97908.13;5060742;28;20132;-86
2021/11/07 12:29:39;;;;;;;0.85;0.50;;;;;;;27.60;17.69;97898.47;5064553;28;20047;-86
2021/11/07 12:32:07;;;;;;;0.85;0.50;;;;;;;28.16;17.01;97906.72;5047046;28;20024;-86
2021/11/07 12:35:10;;;;;;;0.82;0.55;;;;;;;28.48;16.90;97896.91;5067631;28;20478;-85
2021/11/07 12:40:45;;;;;;;1.45;0.60;;;;;;;28.11;17.00;97896.03;5065852;28;20066;-85
2021/11/07 12:43:14;;;;;;;0.80;0.55;;;;;;;27.14;17.50;97880.47;5065352;28;20025;-85
2021/11/07 12:45:46;;;;;;;0.98;0.55;;;;;;;27.37;17.78;97885.69;5065687;28;20028;-87
2021/11/07 12:48:33;;;;;;;3.55;0.75;;;;;;;26.58;18.56;97880.47;5051129;28;20761;-87
2021/11/07 12:51:01;;;;;;;2.53;0.70;;;;;;;25.80;19.26;97878.69;5064510;28;20047;-86
2021/11/07 12:53:30;;;;;;;0.70;0.60;;;;;;;26.16;18.77;97883.97;5065090;28;20067;-86
2021/11/07 12:55:57;;;;;;;1.58;0.70;;;;;;;26.81;18.11;97889.78;5063246;28;20062;-86
2021/11/07 12:58:23;;;;;;;0.63;0.43;;;;;;;26.76;17.96;97879.88;5064022;28;20031;-83
2021/11/07 13:00:51;;;;;;;2.67;1.20;;;;;;;27.09;17.98;97871.81;5062734;28;20141;-82
2021/11/07 13:03:18;;;;;;;2.15;0.68;;;;;;;26.80;17.97;97877.72;5060968;28;20430;-84
2021/11/07 13:05:52;;;;;;;0.63;0.50;;;;;;;27.43;17.11;97874.56;5062290;28;20375;-82
2021/11/07 13:08:20;;;;;;;1.20;1.10;;;;;;;26.77;17.40;97847.63;5061582;28;20060;-82
2021/11/07 13:11:05;;;;;;;0.43;0.40;;;;;;;26.12;18.02;97863.59;5057493;28;20041;-83
2021/11/07 13:13:42;;;;;;;0.60;0.50;;;;;;;25.78;18.59;97858.66;5061610;28;20036;-83
2021/11/07 13:19:16;;;;;;;2.28;0.68;;;;;;;25.00;18.88;97866.63;5062448;28;20069;-84
2021/11/07 13:21:57;;;;;;;2.08;0.80;;;;;;;24.26;19.84;97862.25;5049265;28;20062;-84
2021/11/07 13:32:37;;;;;;;0.77;0.70;;;;;;;25.00;19.34;97857.41;5062535;28;20079;-85
2021/11/07 13:35:09;;;;;;;;;;;;;;;24.92;18.97;97851.25;5063082;28;20073;-84
2021/11/07 13:37:38;;;;;;;1.92;0.73;;;;;;;24.92;19.12;97856.84;5064087;28;19916;-84
2021/11/07 13:40:12;;;;;;;2.97;0.80;;;;;;;24.17;19.94;97862.09;5064393;28;20072;-83
2021/11/07 13:42:40;;;;;;;1.05;0.80;;;;;;;24.55;19.68;97858.25;5062883;28;20678;-87
2021/11/07 13:45:10;;;;;;;0.93;0.68;;;;;;;25.64;18.76;97853.50;5064387;28;20036;-84
2021/11/07 13:47:40;;;;;;;2.47;0.85;;;;;;;26.27;17.90;97840.16;5065697;28;20040;-83
2021/11/07 13:50:10;;;;;;;0.85;0.70;;;;;;;25.79;18.57;97838.50;5065778;28;20054;-85
2021/11/07 13:52:39;;;;;;;2.78;1.08;;;;;;;25.92;18.14;97853.38;5067118;28;20028;-84
2021/11/07 13:55:12;;;;;;;0.95;0.80;;;;;;;25.64;18.20;97845.06;5064623;28;22487;-85
2021/11/07 13:57:38;;;;;;;1.60;0.60;;;;;;;26.05;17.97;97853.31;5064125;28;20135;-84
2021/11/07 14:00:10;;;;;;;1.48;0.75;;;;;;;26.56;17.71;97843.53;5064278;28;20053;-83
2021/11/07 14:02:37;;;;;;;0.73;0.65;;;;;;;26.76;17.37;97840.44;5063754;28;20028;-83
2021/11/07 14:05:09;;;;;;;0.95;0.70;;;;;;;26.71;17.12;97833.34;5065628;28;20063;-84
2021/11/07 14:07:35;;;;;;;0.65;0.60;;;;;;;26.74;16.88;97831.63;5060665;28;20040;-85
2021/11/07 14:10:13;;;;;;;1.38;1.10;;;;;;;26.67;17.06;97831.91;5065495;28;20119;-84